Time;durP1;ratioP1;P1;durP2;ratioP2;P2;SDS_P1;SDS_P2;PMS_P1;PMS_P2;Temp;Humidity;BMP_temperature;BMP_pressure;BME280_temperature;BME280_humidity;BME280_pressure;Samples;Min_cycle;Max_cycle;Signal;HPM_P1;HPM_P2
2022/06/20 00:01:32;;;;;;;8.73;3.33;;;19.00;98.90;;;;;;6125582;23;20441;-78
2022/06/20 00:04:00;;;;;;;5.70;3.67;;;19.00;98.80;;;;;;6126237;23;20466;-77
2022/06/20 00:06:27;;;;;;;3.47;2.90;;;18.90;99.00;;;;;;6125338;23;20799;-78
2022/06/20 00:08:56;;;;;;;9.13;3.70;;;18.90;99.50;;;;;;6127303;23;20458;-77
2022/06/20 00:11:25;;;;;;;6.30;3.10;;;18.90;99.90;;;;;;6126138;23;20430;-77
2022/06/20 00:13:55;;;;;;;7.10;4.60;;;18.80;99.90;;;;;;6126265;23;20458;-78
2022/06/20 00:16:24;;;;;;;7.30;4.30;;;18.80;99.90;;;;;;6125294;23;20440;-83
2022/06/20 00:18:52;;;;;;;7.20;4.73;;;18.70;99.90;;;;;;6126581;23;20751;-84
2022/06/20 00:21:23;;;;;;;5.60;3.63;;;18.70;99.90;;;;;;6123159;23;20803;-79
2022/06/20 00:23:52;;;;;;;6.93;2.90;;;18.70;99.90;;;;;;6125955;23;20438;-83
2022/06/20 00:26:21;;;;;;;5.67;3.63;;;18.60;99.90;;;;;;6126172;23;20522;-85
2022/06/20 00:28:52;;;;;;;7.13;5.30;;;18.60;99.90;;;;;;6126346;23;20441;-83
2022/06/20 00:31:19;;;;;;;4.00;2.70;;;18.50;99.90;;;;;;6128245;23;20523;-82
2022/06/20 00:33:49;;;;;;;4.30;3.37;;;18.50;99.90;;;;;;6129361;23;20751;-82
2022/06/20 00:36:17;;;;;;;3.23;2.90;;;18.50;99.90;;;;;;6140950;23;20457;-83
2022/06/20 00:38:59;;;;;;;5.07;3.70;;;18.50;99.90;;;;;;6120561;23;20451;-83
2022/06/20 00:41:33;;;;;;;4.00;3.70;;;18.50;99.90;;;;;;6127319;23;20445;-82
2022/06/20 00:44:05;;;;;;;4.13;3.40;;;18.50;99.90;;;;;;6126923;23;20438;-83
2022/06/20 00:46:38;;;;;;;4.53;3.63;;;18.50;99.90;;;;;;6124513;23;20437;-83
2022/06/20 00:49:11;;;;;;;6.47;4.30;;;18.50;99.90;;;;;;6126649;23;20982;-83
2022/06/20 00:51:42;;;;;;;7.53;4.47;;;18.50;99.90;;;;;;6125732;23;20427;-76
2022/06/20 00:54:16;;;;;;;5.10;4.10;;;18.50;99.90;;;;;;6128041;23;20443;-83
2022/06/20 00:56:53;;;;;;;5.00;3.63;;;18.50;99.90;;;;;;6127162;23;20436;-83
2022/06/20 00:59:26;;;;;;;4.77;3.33;;;18.50;99.90;;;;;;6126679;23;20548;-77
2022/06/20 01:02:01;;;;;;;6.27;3.30;;;18.50;99.90;;;;;;6126244;23;20475;-76
2022/06/20 01:04:34;;;;;;;9.00;3.80;;;18.50;99.90;;;;;;6125567;23;20515;-76
2022/06/20 01:07:06;;;;;;;6.47;4.90;;;18.50;99.90;;;;;;6127463;23;20496;-77
2022/06/20 01:09:39;;;;;;;11.03;8.10;;;18.50;99.90;;;;;;6127538;23;20466;-77
2022/06/20 01:12:12;;;;;;;3.57;3.07;;;18.50;99.90;;;;;;6129210;23;20444;-77
2022/06/20 01:14:39;;;;;;;8.53;4.10;;;18.50;99.90;;;;;;6128153;23;20501;-76
2022/06/20 01:17:11;;;;;;;6.50;4.03;;;18.40;99.90;;;;;;6128952;23;20907;-77
2022/06/20 01:19:48;;;;;;;5.60;3.53;;;18.50;99.90;;;;;;6128320;23;20449;-77
2022/06/20 01:22:41;;;;;;;4.03;2.73;;;18.40;99.90;;;;;;6130060;23;20444;-77
2022/06/20 01:25:34;;;;;;;8.60;5.20;;;18.40;99.90;;;;;;6128146;23;20509;-77
2022/06/20 01:28:02;;;;;;;8.30;4.90;;;18.40;99.90;;;;;;6130335;23;20478;-77
2022/06/20 01:30:38;;;;;;;5.87;3.63;;;18.40;99.90;;;;;;6129403;23;20782;-77
2022/06/20 01:33:05;;;;;;;7.30;4.10;;;18.40;99.90;;;;;;6128689;23;20495;-80
2022/06/20 01:38:19;;;;;;;7.40;3.50;;;18.40;99.90;;;;;;6133478;23;20441;-83
2022/06/20 01:43:39;;;;;;;4.57;4.10;;;18.30;99.90;;;;;;6131247;23;20435;-77
2022/06/20 01:46:24;;;;;;;9.90;4.70;;;18.30;99.90;;;;;;6125812;23;20530;-82
2022/06/20 01:48:55;;;;;;;9.77;4.80;;;18.40;99.90;;;;;;6130033;23;20440;-78
2022/06/20 01:51:26;;;;;;;5.03;4.10;;;18.40;99.90;;;;;;6127600;23;20430;-76
2022/06/20 01:53:55;;;;;;;6.03;5.20;;;18.40;99.90;;;;;;6132011;23;20431;-77
2022/06/20 01:56:23;;;;;;;5.73;4.70;;;18.40;99.90;;;;;;6129133;23;20437;-78
2022/06/20 01:58:59;;;;;;;4.80;3.93;;;18.40;99.90;;;;;;6121945;23;20743;-78
2022/06/20 02:01:33;;;;;;;8.13;4.40;;;18.40;99.90;;;;;;6128245;23;20477;-78
2022/06/20 02:04:02;;;;;;;5.47;4.20;;;18.40;99.90;;;;;;6109680;23;20791;-78
2022/06/20 02:06:30;;;;;;;9.33;3.70;;;18.30;99.90;;;;;;6109328;23;20489;-78
2022/06/20 02:08:59;;;;;;;4.13;2.90;;;18.20;99.90;;;;;;6110608;23;20453;-78
2022/06/20 02:11:31;;;;;;;6.27;3.90;;;18.30;99.90;;;;;;6109817;23;20435;-78
2022/06/20 02:14:06;;;;;;;8.23;3.93;;;18.20;99.90;;;;;;6109127;23;20436;-78
2022/06/20 02:16:36;;;;;;;6.43;4.07;;;18.20;99.90;;;;;;6109788;23;20433;-83
2022/06/20 02:19:06;;;;;;;5.07;3.40;;;18.20;99.90;;;;;;6111050;23;20820;-78
2022/06/20 02:21:37;;;;;;;7.00;4.00;;;18.20;99.90;;;;;;6097295;23;20527;-78
2022/06/20 02:24:08;;;;;;;3.90;3.30;;;18.20;99.90;;;;;;6097896;23;20441;-78
2022/06/20 02:26:38;;;;;;;5.93;3.73;;;18.20;99.90;;;;;;6109622;23;21331;-84
2022/06/20 02:29:21;;;;;;;3.43;2.97;;;18.20;99.90;;;;;;6110988;23;20438;-84
2022/06/20 02:31:48;;;;;;;5.67;4.80;;;18.20;99.90;;;;;;6110270;23;20727;-78
2022/06/20 02:34:16;;;;;;;6.13;3.40;;;18.20;99.90;;;;;;6101279;23;20493;-77
2022/06/20 02:36:43;;;;;;;3.80;3.37;;;18.20;99.90;;;;;;6104873;23;20599;-78
2022/06/20 02:39:10;;;;;;;6.80;3.60;;;18.20;99.90;;;;;;6109659;23;20911;-78
2022/06/20 02:41:40;;;;;;;7.40;3.80;;;18.20;99.90;;;;;;6110128;23;20509;-84
2022/06/20 02:44:16;;;;;;;4.57;3.70;;;18.20;99.90;;;;;;6109850;23;20467;-84
2022/06/20 02:46:46;;;;;;;7.07;3.83;;;18.20;99.90;;;;;;6106495;23;20468;-83
2022/06/20 02:49:16;;;;;;;5.83;3.60;;;18.20;99.90;;;;;;6095558;23;20459;-78
2022/06/20 02:51:47;;;;;;;5.53;3.70;;;18.20;99.90;;;;;;6104892;23;20450;-78
2022/06/20 02:54:15;;;;;;;5.97;3.30;;;18.20;99.90;;;;;;6109163;23;20447;-77
2022/06/20 02:56:47;;;;;;;5.70;3.80;;;18.20;99.90;;;;;;6111052;23;20461;-84
2022/06/20 02:59:19;;;;;;;5.60;3.70;;;18.20;99.90;;;;;;6110480;23;20889;-84
2022/06/20 03:01:52;;;;;;;8.63;4.83;;;18.20;99.90;;;;;;6109334;23;20448;-84
2022/06/20 03:04:21;;;;;;;6.53;3.50;;;18.20;99.90;;;;;;6109498;23;20425;-84
2022/06/20 03:06:53;;;;;;;8.37;3.90;;;18.20;99.90;;;;;;6110754;23;20445;-84
2022/06/20 03:09:31;;;;;;;5.23;3.70;;;18.20;99.90;;;;;;6109089;23;20425;-84
2022/06/20 03:11:58;;;;;;;6.43;4.60;;;18.20;99.90;;;;;;6096456;23;20507;-77
2022/06/20 03:14:31;;;;;;;7.70;4.17;;;18.20;99.90;;;;;;6097537;23;20474;-77
2022/06/20 03:16:59;;;;;;;4.53;4.13;;;18.20;99.90;;;;;;6096547;23;20446;-78
2022/06/20 03:19:32;;;;;;;6.60;3.63;;;18.20;99.90;;;;;;6097620;23;20439;-77
2022/06/20 03:22:02;;;;;;;6.93;4.30;;;18.20;99.90;;;;;;6098260;23;20437;-77
2022/06/20 03:24:31;;;;;;;6.70;4.10;;;18.20;99.90;;;;;;6097736;23;20705;-84
2022/06/20 03:27:00;;;;;;;9.47;4.30;;;18.20;99.90;;;;;;6097022;23;20442;-77
2022/06/20 03:29:29;;;;;;;5.97;3.77;;;18.20;99.90;;;;;;6097661;23;20437;-77
2022/06/20 03:31:57;;;;;;;5.67;4.43;;;18.20;99.90;;;;;;6098228;23;20457;-84
2022/06/20 03:34:24;;;;;;;6.23;4.83;;;18.20;99.90;;;;;;6094955;23;20431;-77
2022/06/20 03:36:52;;;;;;;5.13;3.70;;;18.20;99.90;;;;;;6112255;23;20454;-84
2022/06/20 03:39:20;;;;;;;7.87;4.43;;;18.20;99.90;;;;;;6109387;23;20913;-78
2022/06/20 03:41:51;;;;;;;6.03;4.40;;;18.20;99.90;;;;;;6107639;23;20441;-78
2022/06/20 03:44:22;;;;;;;8.63;3.90;;;18.20;99.90;;;;;;6107077;23;20453;-78
2022/06/20 03:46:56;;;;;;;4.27;3.30;;;18.30;99.90;;;;;;6127892;23;20500;-84
2022/06/20 03:49:29;;;;;;;6.83;4.40;;;18.30;99.90;;;;;;6125534;23;20432;-77
2022/06/20 03:52:02;;;;;;;4.93;3.90;;;18.20;99.90;;;;;;6127093;23;20441;-77
2022/06/20 03:54:41;;;;;;;5.27;4.77;;;18.20;99.90;;;;;;6156040;23;20428;-78
2022/06/20 03:57:14;;;;;;;13.90;4.20;;;18.20;99.90;;;;;;6156213;23;20471;-84
2022/06/20 03:59:44;;;;;;;4.33;3.60;;;18.30;99.90;;;;;;6157818;23;20496;-84
2022/06/20 04:02:18;;;;;;;4.53;3.37;;;18.30;99.90;;;;;;6156377;23;20548;-78
2022/06/20 04:04:53;;;;;;;4.33;3.83;;;18.30;99.90;;;;;;6156280;23;20491;-77
2022/06/20 04:07:25;;;;;;;6.93;3.50;;;18.40;99.90;;;;;;6155833;23;20441;-77
2022/06/20 04:12:58;;;;;;;7.23;4.23;;;18.40;99.90;;;;;;6157454;23;20931;-83
2022/06/20 04:15:31;;;;;;;7.00;3.60;;;18.40;99.90;;;;;;6160987;23;21368;-83
2022/06/20 04:21:14;;;;;;;5.47;4.23;;;18.50;99.90;;;;;;6074471;23;20428;-78
2022/06/20 04:23:48;;;;;;;4.80;4.10;;;18.50;99.90;;;;;;6078281;23;20447;-83
2022/06/20 04:26:19;;;;;;;5.50;5.00;;;18.60;99.90;;;;;;6135340;23;20446;-84
2022/06/20 04:28:52;;;;;;;6.07;4.50;;;18.60;99.90;;;;;;6177015;23;20492;-83
2022/06/20 04:31:26;;;;;;;6.70;3.60;;;18.60;99.90;;;;;;6177736;23;20417;-83
2022/06/20 04:34:01;;;;;;;5.20;3.90;;;18.60;99.90;;;;;;6167370;23;20432;-78
2022/06/20 04:36:38;;;;;;;5.80;4.40;;;18.60;99.90;;;;;;6163775;23;20444;-78
2022/06/20 04:39:15;;;;;;;6.37;3.60;;;18.60;99.90;;;;;;6166037;23;20742;-83
2022/06/20 04:41:47;;;;;;;3.37;3.07;;;18.60;99.90;;;;;;6161257;23;20502;-79
2022/06/20 04:44:22;;;;;;;5.00;3.67;;;18.70;99.90;;;;;;6159330;23;20499;-78
2022/06/20 04:46:59;;;;;;;4.00;3.60;;;18.70;99.90;;;;;;6158063;23;20451;-78
2022/06/20 04:49:27;;;;;;;4.13;3.73;;;18.70;99.90;;;;;;6158519;23;20499;-78
2022/06/20 04:51:58;;;;;;;5.43;4.40;;;18.70;99.90;;;;;;6158554;23;20461;-78
2022/06/20 04:54:25;;;;;;;6.90;4.23;;;18.70;99.90;;;;;;6159763;23;20434;-78
2022/06/20 04:56:56;;;;;;;8.80;5.10;;;18.70;99.90;;;;;;6159577;23;20507;-78
2022/06/20 04:59:26;;;;;;;6.37;4.80;;;18.60;99.90;;;;;;6161058;23;20448;-78
2022/06/20 05:01:53;;;;;;;5.63;4.60;;;18.60;99.90;;;;;;6160348;23;20441;-78
2022/06/20 05:04:38;;;;;;;8.10;4.47;;;18.50;99.90;;;;;;6160098;23;20430;-83
2022/06/20 05:07:12;;;;;;;5.47;4.27;;;18.50;99.90;;;;;;6176438;23;20440;-83
2022/06/20 05:09:45;;;;;;;6.43;5.03;;;18.40;99.90;;;;;;6179702;23;20452;-83
2022/06/20 05:12:18;;;;;;;9.83;5.57;;;18.50;99.90;;;;;;6178008;23;20429;-78
2022/06/20 05:14:53;;;;;;;7.93;6.00;;;18.40;99.90;;;;;;6174831;23;20503;-83
2022/06/20 05:17:23;;;;;;;7.20;5.20;;;18.40;99.90;;;;;;6179408;23;20419;-83
2022/06/20 05:19:55;;;;;;;5.77;5.23;;;18.40;99.90;;;;;;6178367;23;20428;-78
2022/06/20 05:22:29;;;;;;;8.00;4.83;;;18.30;99.90;;;;;;6165827;23;20482;-78
2022/06/20 05:25:00;;;;;;;7.47;5.40;;;18.40;99.90;;;;;;6160777;23;20439;-79
2022/06/20 05:27:31;;;;;;;9.40;6.47;;;18.30;99.90;;;;;;6158805;23;20877;-78
2022/06/20 05:30:01;;;;;;;10.00;7.20;;;18.30;99.90;;;;;;6159279;23;20515;-78
2022/06/20 05:32:35;;;;;;;12.70;7.77;;;18.30;99.90;;;;;;6127957;23;20433;-78
2022/06/20 05:35:08;;;;;;;14.17;6.40;;;18.30;99.90;;;;;;6128063;23;20437;-78
2022/06/20 05:37:43;;;;;;;15.27;6.30;;;18.30;99.90;;;;;;6127684;23;20425;-78
2022/06/20 05:40:17;;;;;;;12.10;7.00;;;18.20;99.90;;;;;;6128723;23;20516;-84
2022/06/20 05:42:44;;;;;;;7.77;5.50;;;18.10;99.90;;;;;;6129250;23;20756;-85
2022/06/20 05:45:16;;;;;;;9.60;7.87;;;18.10;99.90;;;;;;6121299;23;20439;-83
2022/06/20 05:47:46;;;;;;;9.40;7.33;;;18.10;99.90;;;;;;6114310;23;20430;-78
2022/06/20 05:50:41;;;;;;;15.67;9.20;;;18.00;99.90;;;;;;6109479;23;20964;-78
2022/06/20 05:53:13;;;;;;;14.10;8.90;;;18.00;99.90;;;;;;6104949;23;20438;-78
2022/06/20 05:55:44;;;;;;;14.60;8.30;;;17.90;99.90;;;;;;6110894;23;20513;-78
2022/06/20 05:58:18;;;;;;;14.33;9.73;;;17.90;99.90;;;;;;6098427;23;20436;-77
2022/06/20 06:00:49;;;;;;;18.67;11.30;;;17.90;99.90;;;;;;6107069;23;20798;-84
2022/06/20 06:03:21;;;;;;;12.80;8.00;;;17.90;99.90;;;;;;6105381;23;20432;-84
2022/06/20 06:05:56;;;;;;;11.37;8.30;;;17.80;99.90;;;;;;6107161;23;20973;-77
2022/06/20 06:08:29;;;;;;;9.83;8.03;;;17.80;99.90;;;;;;6111740;23;20444;-84
2022/06/20 06:11:03;;;;;;;9.33;7.90;;;17.80;99.90;;;;;;6110483;23;20450;-77
2022/06/20 06:13:38;;;;;;;16.17;9.20;;;17.80;99.90;;;;;;6097959;23;20425;-78
2022/06/20 06:19:03;;;;;;;13.27;10.43;;;17.50;99.90;;;;;;6115028;23;20496;-84
2022/06/20 06:21:33;;;;;;;15.43;10.73;;;17.30;99.90;;;;;;6111029;23;20452;-83
2022/06/20 06:24:01;;;;;;;14.00;10.43;;;17.10;99.90;;;;;;6110496;23;20439;-83
2022/06/20 06:26:28;;;;;;;13.67;11.00;;;17.00;99.90;;;;;;6107314;23;20444;-83
2022/06/20 06:28:56;;;;;;;11.40;10.00;;;16.80;99.90;;;;;;6103463;23;20467;-76
2022/06/20 06:31:28;;;;;;;14.90;11.03;;;16.80;99.90;;;;;;6108661;23;20432;-83
2022/06/20 06:34:00;;;;;;;17.90;11.80;;;16.70;99.90;;;;;;6097138;23;20436;-77
2022/06/20 06:36:34;;;;;;;11.47;10.43;;;16.70;99.90;;;;;;6109928;23;20442;-77
2022/06/20 06:39:05;;;;;;;12.33;11.00;;;16.70;99.90;;;;;;6098764;23;20435;-84
2022/06/20 06:41:37;;;;;;;13.57;11.97;;;16.80;99.90;;;;;;6111336;23;20436;-84
2022/06/20 06:44:15;;;;;;;11.60;10.57;;;16.80;99.90;;;;;;6132502;23;20797;-84
2022/06/20 06:46:48;;;;;;;10.53;9.53;;;16.80;99.90;;;;;;6157924;23;20441;-84
2022/06/20 06:49:24;;;;;;;11.00;10.03;;;16.80;99.90;;;;;;6143622;23;20462;-85
2022/06/20 06:51:59;;;;;;;10.10;9.10;;;16.90;99.90;;;;;;6157207;23;20490;-84
2022/06/20 06:54:46;;;;;;;9.87;8.90;;;17.00;99.90;;;;;;6157954;23;20440;-84
2022/06/20 06:57:19;;;;;;;8.57;7.70;;;17.10;99.90;;;;;;6156603;23;20442;-76
2022/06/20 06:59:50;;;;;;;12.37;9.57;;;17.20;99.90;;;;;;6156501;23;20436;-78
2022/06/20 07:02:22;;;;;;;10.00;9.10;;;17.30;99.90;;;;;;6147326;23;20477;-77
2022/06/20 07:04:54;;;;;;;11.13;9.50;;;17.40;99.90;;;;;;6156374;23;20788;-84
2022/06/20 07:07:29;;;;;;;9.40;8.53;;;17.40;99.90;;;;;;6164012;23;20501;-84
2022/06/20 07:09:57;;;;;;;9.23;8.33;;;17.50;99.90;;;;;;6162392;23;20508;-84
2022/06/20 07:12:33;;;;;;;8.83;8.07;;;17.50;99.90;;;;;;6157374;23;20904;-76
2022/06/20 07:15:08;;;;;;;11.53;8.07;;;17.60;99.90;;;;;;6155775;23;20440;-76
2022/06/20 07:17:41;;;;;;;11.50;8.70;;;17.70;99.90;;;;;;6156594;23;20778;-76
2022/06/20 07:20:10;;;;;;;9.63;8.60;;;17.70;99.90;;;;;;6155680;23;20457;-76
2022/06/20 07:22:41;;;;;;;10.30;8.40;;;17.60;99.90;;;;;;6156685;23;20431;-78
2022/06/20 07:25:16;;;;;;;9.27;8.40;;;17.70;99.90;;;;;;6157698;23;20504;-77
2022/06/20 07:27:48;;;;;;;10.83;8.83;;;17.70;99.90;;;;;;6156575;23;20742;-84
2022/06/20 07:30:24;;;;;;;9.37;8.13;;;17.70;99.90;;;;;;6159457;23;20443;-84
2022/06/20 07:32:59;;;;;;;8.80;8.10;;;17.70;99.90;;;;;;6156075;23;20434;-79
2022/06/20 07:35:31;;;;;;;10.60;8.70;;;17.70;99.90;;;;;;6155842;23;20451;-78
2022/06/20 07:38:05;;;;;;;10.13;8.80;;;17.70;99.90;;;;;;6155902;23;20496;-84
2022/06/20 07:40:37;;;;;;;10.27;9.27;;;17.70;99.90;;;;;;6160289;23;20919;-84
2022/06/20 07:43:10;;;;;;;9.37;8.47;;;17.80;99.90;;;;;;6158742;23;20444;-83
2022/06/20 07:45:40;;;;;;;9.80;7.90;;;17.80;99.90;;;;;;6158039;23;20449;-83
2022/06/20 07:48:16;;;;;;;8.27;7.40;;;17.80;99.90;;;;;;6156827;23;20484;-84
2022/06/20 07:50:47;;;;;;;11.10;8.83;;;17.80;99.90;;;;;;6156606;23;20438;-84
2022/06/20 07:53:22;;;;;;;8.77;8.00;;;17.80;99.90;;;;;;6157747;23;20438;-83
2022/06/20 07:55:53;;;;;;;8.40;7.70;;;17.90;99.90;;;;;;6156676;23;20439;-83
2022/06/20 07:58:33;;;;;;;9.57;7.50;;;17.90;99.90;;;;;;6157118;23;20714;-84
2022/06/20 08:01:05;;;;;;;9.60;8.37;;;17.90;99.90;;;;;;6158873;23;20437;-84
2022/06/20 08:03:41;;;;;;;9.87;8.87;;;17.90;99.90;;;;;;6157367;23;20437;-82
2022/06/20 08:06:19;;;;;;;9.67;8.40;;;18.00;99.90;;;;;;6157434;23;20515;-84
2022/06/20 08:08:58;;;;;;;10.03;8.40;;;18.00;99.90;;;;;;6157788;23;20444;-85
2022/06/20 08:11:42;;;;;;;7.40;6.77;;;18.00;99.90;;;;;;6157296;23;20436;-84
2022/06/20 08:14:17;;;;;;;10.37;7.50;;;18.00;99.90;;;;;;6156286;23;20435;-85
2022/06/20 08:16:50;;;;;;;8.13;6.40;;;18.00;99.90;;;;;;6157396;23;20447;-85
2022/06/20 08:19:20;;;;;;;6.87;6.13;;;18.00;99.90;;;;;;6156342;23;20448;-85
2022/06/20 08:21:54;;;;;;;6.83;6.27;;;18.00;99.90;;;;;;6156907;23;20932;-85
2022/06/20 08:24:26;;;;;;;6.43;5.90;;;18.00;99.90;;;;;;6155825;23;20919;-83
2022/06/20 08:26:59;;;;;;;8.93;6.90;;;18.00;99.90;;;;;;6159046;23;20518;-84
2022/06/20 08:29:35;;;;;;;6.27;5.67;;;18.00;99.90;;;;;;6158405;23;20544;-84
2022/06/20 08:32:18;;;;;;;7.20;6.60;;;18.00;99.90;;;;;;6155746;23;20814;-78
2022/06/20 08:34:52;;;;;;;7.97;7.20;;;18.10;99.90;;;;;;6155814;23;20437;-84
2022/06/20 08:37:24;;;;;;;10.13;7.53;;;18.10;99.90;;;;;;6163794;23;20513;-78
2022/06/20 08:40:01;;;;;;;6.97;6.27;;;18.20;99.90;;;;;;6155468;23;20451;-77
2022/06/20 08:43:00;;;;;;;7.53;6.10;;;18.20;99.90;;;;;;6155876;23;20428;-84
2022/06/20 08:45:57;;;;;;;6.80;5.80;;;18.30;99.90;;;;;;6146022;23;20448;-84
2022/06/20 08:49:01;;;;;;;8.10;7.30;;;18.30;99.90;;;;;;6149433;23;20437;-78
2022/06/20 08:55:22;;;;;;;8.17;7.47;;;18.30;99.90;;;;;;6158213;23;20435;-82
2022/06/20 08:58:00;;;;;;;8.50;7.70;;;18.30;99.90;;;;;;6155953;23;20457;-83
2022/06/20 09:00:43;;;;;;;7.50;6.77;;;18.30;99.90;;;;;;6156215;23;20437;-83
2022/06/20 09:03:33;;;;;;;6.07;5.57;;;18.30;99.90;;;;;;6155053;23;20441;-78
2022/06/20 09:06:25;;;;;;;8.20;5.60;;;18.30;99.90;;;;;;6155849;23;20444;-78
2022/06/20 09:09:09;;;;;;;7.17;6.57;;;18.30;99.90;;;;;;6155608;23;20451;-77
2022/06/20 09:11:51;;;;;;;8.30;6.50;;;18.30;99.90;;;;;;6144162;23;20988;-78
2022/06/20 09:14:39;;;;;;;6.73;6.13;;;18.30;99.90;;;;;;6155604;23;20441;-78
2022/06/20 09:17:17;;;;;;;7.67;6.47;;;18.30;99.90;;;;;;6155625;23;20435;-78
2022/06/20 09:20:03;;;;;;;6.70;6.20;;;18.30;99.90;;;;;;6156651;23;21002;-83
2022/06/20 09:22:49;;;;;;;7.17;6.57;;;18.30;99.90;;;;;;6156159;23;20424;-83
2022/06/20 09:25:33;;;;;;;6.70;6.00;;;18.20;99.90;;;;;;6156345;23;20508;-83
2022/06/20 09:28:16;;;;;;;7.47;6.50;;;18.20;99.90;;;;;;6157226;23;20441;-83
2022/06/20 09:30:53;;;;;;;8.23;6.53;;;18.20;99.90;;;;;;6159547;23;20502;-83
2022/06/20 09:33:43;;;;;;;7.30;6.60;;;18.20;99.90;;;;;;6159961;23;20827;-82
2022/06/20 09:36:28;;;;;;;6.63;6.00;;;18.20;99.90;;;;;;6159598;23;20517;-77
2022/06/20 09:39:12;;;;;;;8.07;7.27;;;18.30;99.90;;;;;;6160207;23;20436;-78
2022/06/20 09:41:54;;;;;;;6.33;5.80;;;18.20;99.90;;;;;;6158725;23;20440;-83
2022/06/20 09:44:32;;;;;;;7.23;5.90;;;18.30;99.90;;;;;;6159043;23;20445;-83
2022/06/20 09:47:09;;;;;;;6.07;5.57;;;18.20;99.90;;;;;;6158655;23;20447;-84
2022/06/20 09:49:41;;;;;;;7.67;6.93;;;18.20;99.90;;;;;;6159614;23;20493;-84
2022/06/20 09:52:24;;;;;;;7.43;6.63;;;18.30;99.90;;;;;;6159621;23;20456;-83
2022/06/20 09:54:59;;;;;;;7.87;7.17;;;18.30;99.90;;;;;;6158205;23;20433;-83
2022/06/20 10:01:11;;;;;;;7.07;6.30;;;18.30;99.90;;;;;;6151235;23;20447;-83
2022/06/20 10:03:47;;;;;;;6.47;5.87;;;18.30;99.90;;;;;;6157008;23;20444;-83
2022/06/20 10:06:32;;;;;;;7.30;6.10;;;18.30;99.90;;;;;;6158085;23;20460;-83
2022/06/20 10:09:07;;;;;;;7.73;6.87;;;18.30;99.90;;;;;;6158119;23;20488;-82
2022/06/20 10:11:44;;;;;;;6.90;6.40;;;18.30;99.90;;;;;;6157916;23;20438;-83
2022/06/20 10:14:21;;;;;;;9.80;6.80;;;18.30;99.90;;;;;;6150828;23;20425;-83
2022/06/20 10:16:58;;;;;;;7.73;7.13;;;18.30;99.90;;;;;;6157755;23;20444;-82
2022/06/20 10:19:35;;;;;;;8.43;7.63;;;18.30;99.90;;;;;;6157807;23;20439;-83
2022/06/20 10:22:10;;;;;;;9.50;7.70;;;18.30;99.90;;;;;;6157483;23;20543;-83
2022/06/20 10:27:55;;;;;;;7.53;6.00;;;18.30;99.90;;;;;;6137515;23;20491;-83
2022/06/20 10:30:38;;;;;;;8.27;7.47;;;18.30;99.90;;;;;;6154711;23;20439;-83
2022/06/20 10:33:22;;;;;;;13.23;11.83;;;18.30;99.90;;;;;;6154889;23;20460;-83
2022/06/20 10:36:07;;;;;;;10.37;8.40;;;18.30;99.90;;;;;;6145324;23;20522;-83
2022/06/20 10:38:45;;;;;;;9.20;8.40;;;18.30;99.90;;;;;;6148237;23;20437;-82
2022/06/20 10:41:37;;;;;;;;;;;;;;;;;;;;;
2022/06/20 10:44:33;;;;;;;9.27;8.20;;;18.30;99.90;;;;;;6154607;23;20521;-83
2022/06/20 10:47:09;;;;;;;7.67;6.93;;;18.30;99.90;;;;;;6157097;23;20939;-83
2022/06/20 10:50:01;;;;;;;8.90;8.00;;;18.30;99.90;;;;;;6159577;23;20906;-83
2022/06/20 10:52:45;;;;;;;8.67;6.90;;;18.30;99.90;;;;;;6158798;23;20916;-83
2022/06/20 10:55:27;;;;;;;8.00;7.20;;;18.20;99.90;;;;;;6156402;23;20962;-83
2022/06/20 10:58:02;;;;;;;8.30;7.10;;;18.20;99.90;;;;;;6161669;23;20506;-78
2022/06/20 11:00:38;;;;;;;6.83;6.10;;;18.20;99.90;;;;;;6157414;23;20462;-77
2022/06/20 11:03:25;;;;;;;5.93;5.37;;;18.20;99.90;;;;;;6157190;23;20437;-77
2022/06/20 11:05:58;;;;;;;6.30;5.70;;;18.20;99.90;;;;;;6152538;23;20449;-77
2022/06/20 11:08:35;;;;;;;7.53;5.67;;;18.20;99.90;;;;;;6168287;23;20452;-83
2022/06/20 11:11:19;;;;;;;6.83;5.77;;;18.20;99.90;;;;;;6157715;23;20511;-84
2022/06/20 11:13:53;;;;;;;6.17;5.40;;;18.20;99.90;;;;;;6156842;23;20456;-83
2022/06/20 11:16:31;;;;;;;5.37;4.90;;;18.20;99.90;;;;;;6158049;23;20471;-84
2022/06/20 11:19:15;;;;;;;4.73;4.23;;;18.10;99.90;;;;;;6156574;23;20475;-78
2022/06/20 11:21:54;;;;;;;5.10;4.70;;;18.20;99.90;;;;;;6158256;23;20520;-84
2022/06/20 11:24:31;;;;;;;6.40;5.53;;;18.20;99.90;;;;;;6158648;23;20440;-84
2022/06/20 11:27:17;;;;;;;7.70;5.30;;;18.20;99.90;;;;;;6162494;23;20452;-84
2022/06/20 11:30:08;;;;;;;7.03;5.80;;;18.20;99.90;;;;;;6155875;23;20463;-84
2022/06/20 11:32:48;;;;;;;5.87;4.87;;;18.20;99.90;;;;;;6142655;23;20984;-84
2022/06/20 11:35:21;;;;;;;5.00;4.60;;;18.20;99.90;;;;;;6157241;23;20428;-84
2022/06/20 11:38:04;;;;;;;4.70;4.30;;;18.20;99.90;;;;;;6156842;23;20479;-84
2022/06/20 11:40:48;;;;;;;4.00;3.70;;;18.30;99.90;;;;;;6155675;23;20472;-84
2022/06/20 11:43:39;;;;;;;4.20;3.50;;;18.30;99.90;;;;;;6157111;23;20470;-83
2022/06/20 11:46:21;;;;;;;4.37;3.97;;;18.30;99.90;;;;;;6158238;23;20471;-78
2022/06/20 11:48:58;;;;;;;5.30;4.80;;;18.30;99.90;;;;;;6157199;23;20435;-83
2022/06/20 11:51:40;;;;;;;5.30;4.33;;;18.30;99.90;;;;;;6160358;23;20459;-83
2022/06/20 11:54:20;;;;;;;5.30;4.17;;;18.40;99.90;;;;;;6155954;23;20440;-82
2022/06/20 11:56:54;;;;;;;3.47;3.27;;;18.40;99.90;;;;;;6157476;23;20455;-82
2022/06/20 11:59:50;;;;;;;3.50;3.23;;;18.40;99.90;;;;;;6145063;23;20511;-83
2022/06/20 12:02:37;;;;;;;2.83;2.63;;;18.30;99.90;;;;;;6171162;23;20510;-83
2022/06/20 12:05:31;;;;;;;2.90;2.60;;;18.30;99.90;;;;;;6171184;23;20753;-84
2022/06/20 12:08:07;;;;;;;2.63;2.43;;;18.30;99.90;;;;;;6143881;23;20953;-78
2022/06/20 12:10:42;;;;;;;2.27;2.07;;;18.40;99.90;;;;;;6126045;23;20788;-78
2022/06/20 12:13:20;;;;;;;2.63;2.43;;;18.30;99.90;;;;;;6126387;23;20975;-79
2022/06/20 12:15:54;;;;;;;4.70;2.63;;;18.30;99.90;;;;;;6126339;23;20451;-79
2022/06/20 12:18:39;;;;;;;2.47;2.27;;;18.30;99.90;;;;;;6126844;23;20427;-79
2022/06/20 12:24:00;;;;;;;3.47;2.43;;;18.40;99.90;;;;;;6126975;23;20444;-77
2022/06/20 12:26:34;;;;;;;4.90;3.37;;;18.40;99.90;;;;;;6138591;23;20468;-84
2022/06/20 12:29:05;;;;;;;3.63;2.60;;;18.40;99.90;;;;;;6126928;23;20438;-83
2022/06/20 12:31:36;;;;;;;2.77;2.43;;;18.40;99.90;;;;;;6128022;23;20506;-84
2022/06/20 12:34:15;;;;;;;3.07;2.77;;;18.50;99.90;;;;;;6146886;23;20713;-84
2022/06/20 12:36:49;;;;;;;2.70;2.50;;;18.40;99.90;;;;;;6127268;23;20731;-83
2022/06/20 12:39:24;;;;;;;2.30;2.20;;;18.40;99.90;;;;;;6126800;23;20453;-83
2022/06/20 12:41:57;;;;;;;4.67;3.73;;;18.40;99.90;;;;;;6126744;23;20476;-83
2022/06/20 12:44:40;;;;;;;2.80;2.60;;;18.50;99.90;;;;;;6127105;23;20902;-83
2022/06/20 12:47:40;;;;;;;7.07;3.80;;;18.50;99.90;;;;;;6114547;23;20447;-83
2022/06/20 12:50:19;;;;;;;3.70;3.13;;;18.40;99.90;;;;;;6108680;23;20514;-84
2022/06/20 12:52:56;;;;;;;4.40;3.33;;;18.50;99.90;;;;;;6111497;23;20439;-83
2022/06/20 12:55:33;;;;;;;3.30;2.90;;;18.50;99.90;;;;;;6111728;23;20476;-83
2022/06/20 12:58:15;;;;;;;3.40;2.70;;;18.50;99.90;;;;;;6109046;23;20433;-83
2022/06/20 13:00:48;;;;;;;6.23;3.10;;;18.50;99.90;;;;;;6109365;23;20498;-78
2022/06/20 13:04:00;;;;;;;4.77;4.37;;;18.40;99.90;;;;;;6109540;23;20444;-77
2022/06/20 13:06:51;;;;;;;3.37;3.07;;;18.50;99.90;;;;;;6099456;23;20453;-83
2022/06/20 13:09:39;;;;;;;3.47;3.17;;;18.40;99.90;;;;;;6101020;23;20464;-84
2022/06/20 13:12:20;;;;;;;6.53;2.50;;;18.50;99.90;;;;;;6099102;23;20510;-83
2022/06/20 13:15:20;;;;;;;2.70;2.50;;;18.50;99.90;;;;;;6101175;23;20450;-84
2022/06/20 13:17:55;;;;;;;4.17;2.60;;;18.50;99.90;;;;;;6038062;23;20441;-84
2022/06/20 13:20:37;;;;;;;2.93;2.70;;;18.50;99.90;;;;;;6100499;23;20438;-84
2022/06/20 13:23:25;;;;;;;2.97;2.70;;;18.60;99.90;;;;;;6100651;23;20439;-84
2022/06/20 13:25:57;;;;;;;3.00;2.80;;;18.60;99.90;;;;;;6100579;23;20469;-83
2022/06/20 13:32:24;;;;;;;2.60;2.30;;;18.60;99.90;;;;;;6089225;23;20434;-84
2022/06/20 13:35:00;;;;;;;3.07;2.73;;;18.60;99.90;;;;;;6099710;23;20438;-84
2022/06/20 13:37:47;;;;;;;2.90;2.70;;;18.70;99.90;;;;;;6100412;23;20530;-83
2022/06/20 13:40:27;;;;;;;2.60;2.30;;;18.70;99.90;;;;;;6127507;23;20512;-84
2022/06/20 13:43:04;;;;;;;1.80;1.70;;;18.70;99.90;;;;;;6105247;23;20438;-83
2022/06/20 13:45:41;;;;;;;3.20;2.90;;;18.80;99.90;;;;;;6123319;23;20434;-82
2022/06/20 13:48:15;;;;;;;3.20;3.00;;;18.80;99.90;;;;;;6128408;23;20441;-82
2022/06/20 13:54:28;;;;;;;3.63;2.27;;;18.90;99.90;;;;;;6121307;23;20516;-76
2022/06/20 13:57:02;;;;;;;2.60;2.50;;;18.90;99.90;;;;;;6129020;23;20442;-83
2022/06/20 13:59:39;;;;;;;2.97;2.67;;;18.90;99.90;;;;;;6129822;23;20453;-82
2022/06/20 14:02:32;;;;;;;3.43;3.13;;;18.90;99.90;;;;;;6128854;23;20505;-82
2022/06/20 14:05:01;;;;;;;4.23;2.87;;;18.90;99.90;;;;;;6129148;23;20446;-82